Time;durP1;ratioP1;P1;durP2;ratioP2;P2;SDS_P1;SDS_P2;PMS_P1;PMS_P2;Temp;Humidity;BMP_temperature;BMP_pressure;BME280_temperature;BME280_humidity;BME280_pressure;Samples;Min_cycle;Max_cycle;Signal;HPM_P1;HPM_P2
2021/10/08 00:00:10;;;;;;;4.57;2.35;;;;;;;;;;5054400;28;20025;-53
2021/10/08 00:02:36;;;;;;;5.88;2.10;;;;;;;;;;5052990;28;20032;-53
2021/10/08 00:05:02;;;;;;;3.30;1.73;;;;;;;;;;5053421;28;20064;-53
2021/10/08 00:07:28;;;;;;;3.22;1.80;;;;;;;;;;5054009;28;20025;-53
2021/10/08 00:09:54;;;;;;;2.63;1.75;;;;;;;;;;5054148;28;20068;-53
2021/10/08 00:12:20;;;;;;;4.68;2.00;;;;;;;;;;5054250;28;20033;-53
2021/10/08 00:14:46;;;;;;;3.97;2.30;;;;;;;;;;5053496;28;20028;-53
2021/10/08 00:17:12;;;;;;;3.70;2.30;;;;;;;;;;5053685;28;20029;-53
2021/10/08 00:19:38;;;;;;;6.85;2.20;;;;;;;;;;5054056;28;20447;-53
2021/10/08 00:22:04;;;;;;;3.10;2.03;;;;;;;;;;5053868;28;20032;-53
2021/10/08 00:24:30;;;;;;;2.95;2.10;;;;;;;;;;5053410;28;20052;-53
2021/10/08 00:26:56;;;;;;;2.67;1.77;;;;;;;;;;5053372;28;20025;-53
2021/10/08 00:29:22;;;;;;;4.20;2.10;;;;;;;;;;5053757;28;20037;-53
2021/10/08 00:31:48;;;;;;;4.15;2.38;;;;;;;;;;5053887;28;20036;-53
2021/10/08 00:34:14;;;;;;;3.80;2.10;;;;;;;;;;5052815;28;20355;-53
2021/10/08 00:36:40;;;;;;;5.80;2.10;;;;;;;;;;5053003;28;20435;-53
2021/10/08 00:39:07;;;;;;;3.67;2.22;;;;;;;;;;5053340;28;20431;-53
2021/10/08 00:41:33;;;;;;;4.28;2.40;;;;;;;;;;5053322;28;20027;-53
2021/10/08 00:43:59;;;;;;;3.72;2.33;;;;;;;;;;5053020;28;20405;-53
2021/10/08 00:46:25;;;;;;;2.45;2.00;;;;;;;;;;5053578;28;20021;-53
2021/10/08 00:48:54;;;;;;;3.33;2.10;;;;;;;;;;5053616;28;20124;-53
2021/10/08 00:51:21;;;;;;;3.80;2.07;;;;;;;;;;5053495;28;20075;-53
2021/10/08 00:53:47;;;;;;;7.18;2.85;;;;;;;;;;5051899;28;20770;-53
2021/10/08 00:56:16;;;;;;;5.82;2.75;;;;;;;;;;5053693;28;20032;-53
2021/10/08 00:58:42;;;;;;;3.08;2.20;;;;;;;;;;5053353;28;20055;-53
2021/10/08 01:01:09;;;;;;;3.65;1.90;;;;;;;;;;5051914;28;20032;-53
2021/10/08 01:03:35;;;;;;;4.70;2.38;;;;;;;;;;5052327;28;20057;-53
2021/10/08 01:06:01;;;;;;;3.50;2.00;;;;;;;;;;5052913;28;20037;-54
2021/10/08 01:08:27;;;;;;;3.47;2.17;;;;;;;;;;5053292;28;20028;-53
2021/10/08 01:10:53;;;;;;;3.80;2.80;;;;;;;;;;5052541;28;20040;-53
2021/10/08 01:13:19;;;;;;;11.00;2.45;;;;;;;;;;5052830;28;20063;-53
2021/10/08 01:15:45;;;;;;;5.10;2.85;;;;;;;;;;5051815;28;20043;-52
2021/10/08 01:18:11;;;;;;;5.40;2.25;;;;;;;;;;5053348;28;20024;-53
2021/10/08 01:20:37;;;;;;;6.35;2.35;;;;;;;;;;5052875;28;20025;-53
2021/10/08 01:23:04;;;;;;;10.40;2.72;;;;;;;;;;5052530;28;20021;-53
2021/10/08 01:25:31;;;;;;;3.63;1.90;;;;;;;;;;5052137;28;20082;-53
2021/10/08 01:27:57;;;;;;;2.25;1.98;;;;;;;;;;5052721;28;20112;-53
2021/10/08 01:30:24;;;;;;;3.78;2.08;;;;;;;;;;5052663;28;20087;-53
2021/10/08 01:32:50;;;;;;;4.38;2.30;;;;;;;;;;5052862;28;20025;-53
2021/10/08 01:35:17;;;;;;;4.05;2.22;;;;;;;;;;5051834;28;20340;-53
2021/10/08 01:37:43;;;;;;;3.58;1.90;;;;;;;;;;5052738;28;20082;-53
2021/10/08 01:40:10;;;;;;;3.40;1.80;;;;;;;;;;5052963;28;20021;-53
2021/10/08 01:42:36;;;;;;;4.93;2.38;;;;;;;;;;5040800;28;20120;-53
2021/10/08 01:45:02;;;;;;;7.65;2.42;;;;;;;;;;5032164;28;20025;-53
2021/10/08 01:47:28;;;;;;;2.72;1.95;;;;;;;;;;5035370;28;20025;-52
2021/10/08 01:49:55;;;;;;;4.00;2.35;;;;;;;;;;5037059;28;20340;-53
2021/10/08 01:52:21;;;;;;;4.65;2.40;;;;;;;;;;5036787;28;20025;-53
2021/10/08 01:54:47;;;;;;;6.05;2.45;;;;;;;;;;5036387;28;20026;-53
2021/10/08 01:57:14;;;;;;;4.63;2.22;;;;;;;;;;5036090;28;20451;-53
2021/10/08 01:59:40;;;;;;;3.22;2.47;;;;;;;;;;5036890;28;20105;-53
2021/10/08 02:02:06;;;;;;;2.97;2.08;;;;;;;;;;5035797;28;20100;-53
2021/10/08 02:04:32;;;;;;;3.20;2.13;;;;;;;;;;5035953;28;20018;-54
2021/10/08 02:06:58;;;;;;;3.17;2.40;;;;;;;;;;5036582;28;20351;-53
2021/10/08 02:09:24;;;;;;;4.88;2.40;;;;;;;;;;5036293;28;20017;-53
2021/10/08 02:11:50;;;;;;;4.80;2.83;;;;;;;;;;5032118;28;20049;-53
2021/10/08 02:14:16;;;;;;;5.13;2.78;;;;;;;;;;5035507;28;20037;-53
2021/10/08 02:16:42;;;;;;;3.33;2.20;;;;;;;;;;5035795;28;20367;-53
2021/10/08 02:19:08;;;;;;;7.20;2.38;;;;;;;;;;5036705;28;20080;-53
2021/10/08 02:21:34;;;;;;;4.32;2.42;;;;;;;;;;5036023;28;20029;-53
2021/10/08 02:24:01;;;;;;;3.50;2.20;;;;;;;;;;5035565;28;20025;-53
2021/10/08 02:26:27;;;;;;;5.45;2.78;;;;;;;;;;5035537;28;20447;-53
2021/10/08 02:28:53;;;;;;;7.55;2.88;;;;;;;;;;5041887;28;20041;-53
2021/10/08 02:31:19;;;;;;;5.18;2.60;;;;;;;;;;5053569;28;20466;-53
2021/10/08 02:33:47;;;;;;;2.80;2.03;;;;;;;;;;5055459;28;20064;-52
2021/10/08 02:36:13;;;;;;;3.55;2.45;;;;;;;;;;5045513;28;20052;-52
2021/10/08 02:38:39;;;;;;;4.82;2.75;;;;;;;;;;5043612;28;20083;-53
2021/10/08 02:41:05;;;;;;;4.85;2.55;;;;;;;;;;5055439;28;20029;-53
2021/10/08 02:43:32;;;;;;;6.10;2.88;;;;;;;;;;5054898;28;20025;-53
2021/10/08 02:45:58;;;;;;;4.00;2.95;;;;;;;;;;5055798;28;20029;-53
2021/10/08 02:48:24;;;;;;;3.33;2.45;;;;;;;;;;5055627;28;20359;-53
2021/10/08 02:50:50;;;;;;;4.40;2.63;;;;;;;;;;5055342;28;20044;-53
2021/10/08 02:53:16;;;;;;;4.47;3.03;;;;;;;;;;5055563;28;20029;-53
2021/10/08 02:55:42;;;;;;;5.18;2.88;;;;;;;;;;5054747;28;20031;-53
2021/10/08 02:58:08;;;;;;;4.82;3.22;;;;;;;;;;5054472;28;20021;-53
2021/10/08 03:00:35;;;;;;;7.53;3.08;;;;;;;;;;5055664;28;20021;-52
2021/10/08 03:03:01;;;;;;;5.97;3.17;;;;;;;;;;5054326;28;20044;-53
2021/10/08 03:05:27;;;;;;;4.05;2.83;;;;;;;;;;5054573;28;20247;-52
2021/10/08 03:07:53;;;;;;;10.20;3.80;;;;;;;;;;5055092;28;20029;-53
2021/10/08 03:10:19;;;;;;;6.35;2.92;;;;;;;;;;5055523;28;20107;-53
2021/10/08 03:12:46;;;;;;;3.63;2.53;;;;;;;;;;5055153;28;20065;-53
2021/10/08 03:15:12;;;;;;;3.83;2.83;;;;;;;;;;5054425;28;20052;-53
2021/10/08 03:17:38;;;;;;;3.80;2.67;;;;;;;;;;5055152;28;20024;-52
2021/10/08 03:20:05;;;;;;;8.27;3.47;;;;;;;;;;5055345;28;20087;-53
2021/10/08 03:22:31;;;;;;;5.55;3.40;;;;;;;;;;5055124;28;20028;-53
2021/10/08 03:24:57;;;;;;;4.28;2.92;;;;;;;;;;5054163;28;20340;-53
2021/10/08 03:27:23;;;;;;;5.90;3.53;;;;;;;;;;5055320;28;20442;-52
2021/10/08 03:29:49;;;;;;;4.05;2.85;;;;;;;;;;5054668;28;20029;-53
2021/10/08 03:32:15;;;;;;;7.40;3.92;;;;;;;;;;5054623;28;20032;-53
2021/10/08 03:34:41;;;;;;;6.82;3.38;;;;;;;;;;5054396;28;20024;-53
2021/10/08 03:37:11;;;;;;;4.88;3.20;;;;;;;;;;5054785;28;20025;-53
2021/10/08 03:39:40;;;;;;;5.40;3.25;;;;;;;;;;5054951;28;20371;-53
2021/10/08 03:42:06;;;;;;;3.90;2.63;;;;;;;;;;5054557;28;20079;-53
2021/10/08 03:44:38;;;;;;;6.07;2.92;;;;;;;;;;5054180;28;20025;-53
2021/10/08 03:47:13;;;;;;;5.05;3.25;;;;;;;;;;5054492;28;20047;-53
2021/10/08 03:49:40;;;;;;;5.03;3.05;;;;;;;;;;5054676;28;20029;-52
2021/10/08 03:52:06;;;;;;;7.95;2.97;;;;;;;;;;5054612;28;20055;-53
2021/10/08 03:54:32;;;;;;;6.57;3.17;;;;;;;;;;5053685;28;20443;-53
2021/10/08 03:56:58;;;;;;;4.78;2.88;;;;;;;;;;5054255;28;20029;-53
2021/10/08 03:59:24;;;;;;;5.18;3.22;;;;;;;;;;5054132;28;20028;-52
2021/10/08 04:01:50;;;;;;;6.68;3.20;;;;;;;;;;5052354;28;20033;-53
2021/10/08 04:04:16;;;;;;;6.25;3.00;;;;;;;;;;5053697;28;20028;-53
2021/10/08 04:06:42;;;;;;;5.80;3.30;;;;;;;;;;5054503;28;20033;-53
2021/10/08 04:09:08;;;;;;;5.20;3.00;;;;;;;;;;5054266;28;20027;-52
2021/10/08 04:11:34;;;;;;;6.10;3.55;;;;;;;;;;5052738;28;20463;-52
2021/10/08 04:14:00;;;;;;;6.05;3.22;;;;;;;;;;5053725;28;20171;-53
2021/10/08 04:16:27;;;;;;;9.88;3.83;;;;;;;;;;5054335;28;20025;-52
2021/10/08 04:18:53;;;;;;;4.10;3.00;;;;;;;;;;5053428;28;20447;-53
2021/10/08 04:21:19;;;;;;;8.23;2.83;;;;;;;;;;5054318;28;20036;-52
2021/10/08 04:23:45;;;;;;;8.60;3.83;;;;;;;;;;5052967;28;20554;-53
2021/10/08 04:26:11;;;;;;;9.70;3.53;;;;;;;;;;5053872;28;20033;-53
2021/10/08 04:28:37;;;;;;;8.73;3.63;;;;;;;;;;5053976;28;20029;-53
2021/10/08 04:31:04;;;;;;;4.97;3.88;;;;;;;;;;5053576;28;20037;-53
2021/10/08 04:33:30;;;;;;;6.13;3.58;;;;;;;;;;5052897;28;20017;-53
2021/10/08 04:36:00;;;;;;;4.55;3.17;;;;;;;;;;5053630;28;20374;-53
2021/10/08 04:38:27;;;;;;;5.32;3.50;;;;;;;;;;5053334;28;20025;-53
2021/10/08 04:40:53;;;;;;;10.63;4.20;;;;;;;;;;5053830;28;20033;-53
2021/10/08 04:43:19;;;;;;;6.32;3.90;;;;;;;;;;5052941;28;20039;-53
2021/10/08 04:45:46;;;;;;;8.10;3.35;;;;;;;;;;5052843;28;20029;-52
2021/10/08 04:48:12;;;;;;;8.85;4.13;;;;;;;;;;5053664;28;20025;-52
2021/10/08 04:50:38;;;;;;;5.15;3.53;;;;;;;;;;5053207;28;20037;-53
2021/10/08 04:53:14;;;;;;;9.50;4.10;;;;;;;;;;5053037;28;20516;-53
2021/10/08 04:55:41;;;;;;;8.27;3.60;;;;;;;;;;5052896;28;20154;-53
2021/10/08 04:58:07;;;;;;;8.00;4.22;;;;;;;;;;5053139;28;20021;-53
2021/10/08 05:00:33;;;;;;;8.13;3.78;;;;;;;;;;5053611;28;20032;-52
2021/10/08 05:02:59;;;;;;;6.28;3.30;;;;;;;;;;5051398;28;20067;-53
2021/10/08 05:05:25;;;;;;;6.18;3.30;;;;;;;;;;5052519;28;20033;-53
2021/10/08 05:07:51;;;;;;;6.97;3.65;;;;;;;;;;5052879;28;20025;-53
2021/10/08 05:10:17;;;;;;;6.82;3.50;;;;;;;;;;5053314;28;20028;-53
2021/10/08 05:12:43;;;;;;;6.70;3.88;;;;;;;;;;5052851;28;20025;-53
2021/10/08 05:15:09;;;;;;;7.57;4.03;;;;;;;;;;5052366;28;20347;-53
2021/10/08 05:17:35;;;;;;;9.48;3.83;;;;;;;;;;5052860;28;20439;-53
2021/10/08 05:20:01;;;;;;;7.38;3.45;;;;;;;;;;5053078;28;20055;-53
2021/10/08 05:22:27;;;;;;;7.47;4.15;;;;;;;;;;5052642;28;20060;-53
2021/10/08 05:24:53;;;;;;;6.25;4.05;;;;;;;;;;5052242;28;20083;-53
2021/10/08 05:27:19;;;;;;;6.18;3.50;;;;;;;;;;5053076;28;20439;-53
2021/10/08 05:29:45;;;;;;;7.60;3.85;;;;;;;;;;5052728;28;20036;-53
2021/10/08 05:32:12;;;;;;;8.73;4.05;;;;;;;;;;5052276;28;20076;-53
2021/10/08 05:34:38;;;;;;;8.35;4.35;;;;;;;;;;5051833;28;20497;-53
2021/10/08 05:37:04;;;;;;;6.85;4.05;;;;;;;;;;5052775;28;20036;-53
2021/10/08 05:39:30;;;;;;;7.68;3.85;;;;;;;;;;5052736;28;20041;-53
2021/10/08 05:41:56;;;;;;;7.13;3.65;;;;;;;;;;5052852;28;20017;-53
2021/10/08 05:44:22;;;;;;;7.55;4.00;;;;;;;;;;5051802;28;20414;-53
2021/10/08 05:46:48;;;;;;;9.48;4.43;;;;;;;;;;5052197;28;20021;-52
2021/10/08 05:49:14;;;;;;;7.28;4.20;;;;;;;;;;5052695;28;20025;-53
2021/10/08 05:51:40;;;;;;;9.10;4.68;;;;;;;;;;5052732;28;20099;-53
2021/10/08 05:54:06;;;;;;;8.50;3.80;;;;;;;;;;5051807;28;20450;-53
2021/10/08 05:56:32;;;;;;;6.97;4.63;;;;;;;;;;5052467;28;20113;-53
2021/10/08 05:58:58;;;;;;;6.97;4.25;;;;;;;;;;5052832;28;20028;-53
2021/10/08 06:01:24;;;;;;;10.73;4.97;;;;;;;;;;5050706;28;20555;-53
2021/10/08 06:03:50;;;;;;;6.72;4.38;;;;;;;;;;5051866;28;20022;-53
2021/10/08 06:06:16;;;;;;;6.95;4.15;;;;;;;;;;5052937;28;20025;-53
2021/10/08 06:08:42;;;;;;;7.68;4.22;;;;;;;;;;5052918;28;20358;-52
2021/10/08 06:11:09;;;;;;;9.68;4.47;;;;;;;;;;5052545;28;20033;-53
2021/10/08 06:13:35;;;;;;;7.60;4.40;;;;;;;;;;5051077;28;20352;-53
2021/10/08 06:16:01;;;;;;;8.25;4.32;;;;;;;;;;5052828;28;20125;-52
2021/10/08 06:18:27;;;;;;;11.10;4.63;;;;;;;;;;5052482;28;20021;-53
2021/10/08 06:20:53;;;;;;;10.27;4.07;;;;;;;;;;5052590;28;20027;-53
2021/10/08 06:23:21;;;;;;;9.02;4.80;;;;;;;;;;5052259;28;20029;-52
2021/10/08 06:25:47;;;;;;;6.35;4.45;;;;;;;;;;5051823;28;20036;-53
2021/10/08 06:28:13;;;;;;;7.10;4.30;;;;;;;;;;5052226;28;20021;-53
2021/10/08 06:30:39;;;;;;;9.57;4.93;;;;;;;;;;5051954;28;20037;-53
2021/10/08 06:33:05;;;;;;;9.35;4.65;;;;;;;;;;5052254;28;20494;-53
2021/10/08 06:35:32;;;;;;;7.85;4.38;;;;;;;;;;5055343;28;20037;-53
2021/10/08 06:37:59;;;;;;;14.35;4.70;;;;;;;;;;5055790;28;20578;-53
2021/10/08 06:40:25;;;;;;;6.45;4.20;;;;;;;;;;5056163;28;20029;-53
2021/10/08 06:42:51;;;;;;;8.80;4.40;;;;;;;;;;5055267;28;20459;-52
2021/10/08 06:45:17;;;;;;;17.10;4.40;;;;;;;;;;5054887;28;20029;-52
2021/10/08 06:47:43;;;;;;;6.28;4.35;;;;;;;;;;5055590;28;20021;-53
2021/10/08 06:50:09;;;;;;;10.02;4.57;;;;;;;;;;5055438;28;20024;-52
2021/10/08 06:52:35;;;;;;;8.82;4.30;;;;;;;;;;5055698;28;20021;-53
2021/10/08 06:55:02;;;;;;;13.43;4.20;;;;;;;;;;5054618;28;20027;-52
2021/10/08 06:57:28;;;;;;;7.88;3.97;;;;;;;;;;5055497;28;20021;-52
2021/10/08 06:59:54;;;;;;;11.13;5.60;;;;;;;;;;5055570;28;20051;-53
2021/10/08 07:02:20;;;;;;;7.68;4.20;;;;;;;;;;5053797;28;20029;-52
2021/10/08 07:04:46;;;;;;;6.55;4.43;;;;;;;;;;5054708;28;20112;-53
2021/10/08 07:07:13;;;;;;;11.25;5.05;;;;;;;;;;5055700;28;20017;-53
2021/10/08 07:09:39;;;;;;;12.13;4.63;;;;;;;;;;5055100;28;20032;-53
2021/10/08 07:12:05;;;;;;;9.00;4.82;;;;;;;;;;5055445;28;20116;-52
2021/10/08 07:14:31;;;;;;;7.93;5.25;;;;;;;;;;5054696;28;20025;-52
2021/10/08 07:16:57;;;;;;;6.72;4.38;;;;;;;;;;5055171;28;20055;-52
2021/10/08 07:19:23;;;;;;;9.02;4.50;;;;;;;;;;5055254;28;20028;-53
2021/10/08 07:21:50;;;;;;;9.65;4.57;;;;;;;;;;5054791;28;20025;-52
2021/10/08 07:24:17;;;;;;;9.15;4.18;;;;;;;;;;5054305;28;20025;-52
2021/10/08 07:26:43;;;;;;;9.25;5.82;;;;;;;;;;5054916;28;20104;-52
2021/10/08 07:29:09;;;;;;;8.05;4.85;;;;;;;;;;5055115;28;20024;-53
2021/10/08 07:31:35;;;;;;;11.25;4.82;;;;;;;;;;5055151;28;20438;-52
2021/10/08 07:34:01;;;;;;;10.68;5.55;;;;;;;;;;5054115;28;20091;-53
2021/10/08 07:36:27;;;;;;;9.02;4.88;;;;;;;;;;5054736;28;20025;-52
2021/10/08 07:38:53;;;;;;;10.95;4.82;;;;;;;;;;5054968;28;20021;-52
2021/10/08 07:41:19;;;;;;;9.23;4.93;;;;;;;;;;5054882;28;20083;-53
2021/10/08 07:43:46;;;;;;;10.68;5.18;;;;;;;;;;5053862;28;20036;-53
2021/10/08 07:46:12;;;;;;;8.82;3.90;;;;;;;;;;5054320;28;20045;-53
2021/10/08 07:48:38;;;;;;;10.13;4.32;;;;;;;;;;5054537;28;20017;-52
2021/10/08 07:51:04;;;;;;;9.27;4.38;;;;;;;;;;5053985;28;20037;-53
2021/10/08 07:53:31;;;;;;;7.60;4.65;;;;;;;;;;5054241;28;20316;-52
2021/10/08 07:55:58;;;;;;;17.45;5.53;;;;;;;;;;5054543;28;20025;-52
2021/10/08 07:58:27;;;;;;;8.85;4.97;;;;;;;;;;5054314;28;20061;-52
2021/10/08 08:00:57;;;;;;;9.30;5.50;;;;;;;;;;5054276;28;20021;-52
2021/10/08 08:03:23;;;;;;;9.02;4.72;;;;;;;;;;5053457;28;20446;-52
2021/10/08 08:05:49;;;;;;;8.05;4.60;;;;;;;;;;5053671;28;20029;-52
2021/10/08 08:08:15;;;;;;;8.77;4.97;;;;;;;;;;5054277;28;20443;-52
2021/10/08 08:10:42;;;;;;;9.32;4.78;;;;;;;;;;5053847;28;20075;-53
2021/10/08 08:13:08;;;;;;;11.63;4.85;;;;;;;;;;5053953;28;20039;-53
2021/10/08 08:15:34;;;;;;;7.07;4.07;;;;;;;;;;5053421;28;20108;-53
2021/10/08 08:18:00;;;;;;;8.98;4.47;;;;;;;;;;5054321;28;20068;-53
2021/10/08 08:20:26;;;;;;;12.63;5.43;;;;;;;;;;5053745;28;20044;-52
2021/10/08 08:22:52;;;;;;;7.60;4.25;;;;;;;;;;5053907;28;20028;-53
2021/10/08 08:25:18;;;;;;;10.02;5.18;;;;;;;;;;5053214;28;20048;-53
2021/10/08 08:27:44;;;;;;;7.18;4.13;;;;;;;;;;5047101;28;20035;-53
2021/10/08 08:30:10;;;;;;;8.18;4.43;;;;;;;;;;5038892;28;20410;-53
2021/10/08 08:32:36;;;;;;;10.85;5.63;;;;;;;;;;5054001;28;20031;-52
2021/10/08 08:35:04;;;;;;;8.13;5.25;;;;;;;;;;5052548;28;20466;-53
2021/10/08 08:37:30;;;;;;;6.30;3.95;;;;;;;;;;5040359;28;20029;-53
2021/10/08 08:39:56;;;;;;;8.15;4.78;;;;;;;;;;5033660;28;20025;-58
2021/10/08 08:42:22;;;;;;;8.13;5.15;;;;;;;;;;5033728;28;20100;-53
2021/10/08 08:44:49;;;;;;;11.38;5.22;;;;;;;;;;5032805;28;20029;-53
2021/10/08 08:47:19;;;;;;;8.60;4.80;;;;;;;;;;5033816;28;20032;-53
2021/10/08 08:49:46;;;;;;;8.52;4.85;;;;;;;;;;5033851;28;20017;-52
2021/10/08 08:52:12;;;;;;;13.35;6.07;;;;;;;;;;5033278;28;20120;-53
2021/10/08 08:54:40;;;;;;;11.25;5.20;;;;;;;;;;5032840;28;20018;-52
2021/10/08 08:57:10;;;;;;;13.68;5.88;;;;;;;;;;5032778;28;20029;-52
2021/10/08 08:59:56;;;;;;;7.95;4.63;;;;;;;;;;5033553;28;20029;-53
2021/10/08 09:02:24;;;;;;;13.32;5.20;;;;;;;;;;5031549;28;20033;-52
2021/10/08 09:04:50;;;;;;;9.20;5.13;;;;;;;;;;5032280;28;20021;-52
2021/10/08 09:07:17;;;;;;;9.05;5.30;;;;;;;;;;5032956;28;20040;-52
2021/10/08 09:09:44;;;;;;;9.55;5.15;;;;;;;;;;5033191;28;20439;-53
2021/10/08 09:12:11;;;;;;;10.68;5.13;;;;;;;;;;5032856;28;20061;-52
2021/10/08 09:14:37;;;;;;;12.40;6.55;;;;;;;;;;5032628;28;20116;-53
2021/10/08 09:17:08;;;;;;;13.60;5.70;;;;;;;;;;5033066;28;20030;-52
2021/10/08 09:19:49;;;;;;;12.65;6.00;;;;;;;;;;5032750;28;20025;-52
2021/10/08 09:22:15;;;;;;;9.40;5.78;;;;;;;;;;5032709;28;20018;-53
2021/10/08 09:24:41;;;;;;;16.77;6.15;;;;;;;;;;5032717;28;20026;-52
2021/10/08 09:27:12;;;;;;;14.45;6.38;;;;;;;;;;5033014;28;20542;-52
2021/10/08 09:29:38;;;;;;;17.05;5.35;;;;;;;;;;5032719;28;20037;-53
2021/10/08 09:32:04;;;;;;;12.65;6.43;;;;;;;;;;5033029;28;20040;-53
2021/10/08 09:34:31;;;;;;;19.55;7.53;;;;;;;;;;5031926;28;20332;-53
2021/10/08 09:39:34;;;;;;;11.13;5.32;;;;;;;;;;5033044;28;20091;-53
2021/10/08 09:42:02;;;;;;;19.67;6.68;;;;;;;;;;5032558;28;20037;-52
2021/10/08 09:44:28;;;;;;;14.20;6.30;;;;;;;;;;5032233;28;20021;-53
2021/10/08 09:47:13;;;;;;;13.85;5.80;;;;;;;;;;5032456;28;20022;-53
2021/10/08 09:49:40;;;;;;;11.13;5.57;;;;;;;;;;5032898;28;20309;-54
2021/10/08 09:52:24;;;;;;;13.40;5.95;;;;;;;;;;5032195;28;20036;-53
2021/10/08 09:54:51;;;;;;;11.63;5.75;;;;;;;;;;5031951;28;20036;-53
2021/10/08 09:57:20;;;;;;;12.05;6.25;;;;;;;;;;5032354;28;20064;-53
2021/10/08 09:59:46;;;;;;;13.50;6.45;;;;;;;;;;5032559;28;20092;-53
2021/10/08 10:02:12;;;;;;;11.18;5.63;;;;;;;;;;5030873;28;20026;-53
2021/10/08 10:04:46;;;;;;;11.27;5.80;;;;;;;;;;5032112;28;20025;-53
2021/10/08 10:07:13;;;;;;;15.95;7.60;;;;;;;;;;5033361;28;20064;-53
2021/10/08 10:09:39;;;;;;;18.15;7.47;;;;;;;;;;5036567;28;20080;-53
2021/10/08 10:12:06;;;;;;;13.20;6.25;;;;;;;;;;5036393;28;20459;-53
2021/10/08 10:14:33;;;;;;;18.15;7.03;;;;;;;;;;5035923;28;20080;-53
2021/10/08 10:17:00;;;;;;;14.00;7.07;;;;;;;;;;5036284;28;20036;-53
2021/10/08 10:19:26;;;;;;;16.67;7.60;;;;;;;;;;5036286;28;20461;-53
2021/10/08 10:21:54;;;;;;;11.35;6.70;;;;;;;;;;5035983;28;20032;-53
2021/10/08 10:24:22;;;;;;;15.10;6.60;;;;;;;;;;5035633;28;20018;-53
2021/10/08 10:26:48;;;;;;;14.48;6.53;;;;;;;;;;5036328;28;20021;-53
2021/10/08 10:29:14;;;;;;;13.20;6.47;;;;;;;;;;5036209;28;20026;-53
2021/10/08 10:31:40;;;;;;;13.93;6.47;;;;;;;;;;5036366;28;20037;-53
2021/10/08 10:34:07;;;;;;;11.65;6.30;;;;;;;;;;5035392;28;20048;-53
2021/10/08 10:36:38;;;;;;;13.50;6.47;;;;;;;;;;5035861;28;20060;-54
2021/10/08 10:39:13;;;;;;;12.95;6.72;;;;;;;;;;5035753;28;20455;-53
2021/10/08 10:41:40;;;;;;;16.13;6.50;;;;;;;;;;5036193;28;20041;-53
2021/10/08 10:44:22;;;;;;;12.00;5.97;;;;;;;;;;5035418;28;20372;-53
2021/10/08 10:51:57;;;;;;;16.42;6.97;;;;;;;;;;5035632;28;20095;-53
2021/10/08 10:54:49;;;;;;;15.15;7.25;;;;;;;;;;5034697;28;20026;-53
2021/10/08 10:57:22;;;;;;;13.38;7.63;;;;;;;;;;5035355;28;20049;-53
2021/10/08 10:59:49;;;;;;;17.05;7.60;;;;;;;;;;5035701;28;20060;-53
2021/10/08 11:02:25;;;;;;;13.05;6.55;;;;;;;;;;5033876;28;20416;-53
2021/10/08 11:05:08;;;;;;;13.07;7.32;;;;;;;;;;5035054;28;20053;-53
2021/10/08 11:07:34;;;;;;;14.00;6.63;;;;;;;;;;5035497;28;20474;-53
2021/10/08 11:10:02;;;;;;;13.60;7.18;;;;;;;;;;5035245;28;20212;-53
2021/10/08 11:12:36;;;;;;;13.60;7.28;;;;;;;;;;5035372;28;20044;-53
2021/10/08 11:15:17;;;;;;;22.42;7.95;;;;;;;;;;5034497;28;20025;-53
2021/10/08 11:17:53;;;;;;;13.07;7.28;;;;;;;;;;5034773;28;20026;-53
2021/10/08 11:20:31;;;;;;;17.50;7.50;;;;;;;;;;5034759;28;20443;-53
2021/10/08 11:22:58;;;;;;;19.35;8.98;;;;;;;;;;5035018;28;20451;-53
2021/10/08 11:25:25;;;;;;;12.77;7.30;;;;;;;;;;5034640;28;20032;-53
2021/10/08 11:27:51;;;;;;;16.85;8.00;;;;;;;;;;5035121;28;20052;-54
2021/10/08 11:30:17;;;;;;;15.13;7.75;;;;;;;;;;5034743;28;20048;-54
2021/10/08 11:32:45;;;;;;;19.50;8.52;;;;;;;;;;5035120;28;20026;-53
2021/10/08 11:35:12;;;;;;;13.73;7.07;;;;;;;;;;5034338;28;20466;-53
2021/10/08 11:37:42;;;;;;;19.50;7.82;;;;;;;;;;5034965;28;20037;-53
2021/10/08 11:40:09;;;;;;;16.52;7.47;;;;;;;;;;5035050;28;20026;-53
2021/10/08 11:42:41;;;;;;;15.70;7.07;;;;;;;;;;5034669;28;20104;-53
2021/10/08 11:45:11;;;;;;;18.05;7.80;;;;;;;;;;5034122;28;20048;-53
2021/10/08 11:47:52;;;;;;;16.08;8.40;;;;;;;;;;5034342;28;20423;-53
2021/10/08 11:50:44;;;;;;;20.55;8.93;;;;;;;;;;5034769;28;20036;-53
2021/10/08 11:53:11;;;;;;;23.42;8.85;;;;;;;;;;5034214;28;20157;-53
2021/10/08 11:55:40;;;;;;;14.82;9.07;;;;;;;;;;5033927;28;20021;-53
2021/10/08 11:58:07;;;;;;;18.60;9.20;;;;;;;;;;5034589;28;20029;-53
2021/10/08 12:00:40;;;;;;;18.77;9.20;;;;;;;;;;5034589;28;20590;-53
2021/10/08 12:03:10;;;;;;;22.38;8.75;;;;;;;;;;5032736;28;20096;-54
2021/10/08 12:05:48;;;;;;;17.20;7.60;;;;;;;;;;5033718;28;20036;-53
2021/10/08 12:08:17;;;;;;;20.30;8.77;;;;;;;;;;5034594;28;20029;-53
2021/10/08 12:11:00;;;;;;;18.80;8.68;;;;;;;;;;5033783;28;20041;-53
2021/10/08 12:13:35;;;;;;;17.60;8.27;;;;;;;;;;5033658;28;20505;-53
2021/10/08 12:16:01;;;;;;;20.00;7.95;;;;;;;;;;5034134;28;20033;-53
2021/10/08 12:18:27;;;;;;;18.63;9.40;;;;;;;;;;5034418;28;20344;-53
2021/10/08 12:21:07;;;;;;;24.17;9.73;;;;;;;;;;5034080;28;20052;-53
2021/10/08 12:23:33;;;;;;;18.30;9.20;;;;;;;;;;5033420;28;20049;-54
2021/10/08 12:25:59;;;;;;;21.88;10.98;;;;;;;;;;5034175;28;20431;-53
2021/10/08 12:28:26;;;;;;;25.48;10.05;;;;;;;;;;5033867;28;20026;-53
2021/10/08 12:30:54;;;;;;;21.45;10.48;;;;;;;;;;5032955;28;20038;-53
2021/10/08 12:33:34;;;;;;;20.10;8.27;;;;;;;;;;5033852;28;20029;-53
2021/10/08 12:36:10;;;;;;;16.93;8.77;;;;;;;;;;5034201;28;20083;-53
2021/10/08 12:38:55;;;;;;;27.05;11.70;;;;;;;;;;5033597;28;20279;-53
2021/10/08 12:41:24;;;;;;;19.50;9.10;;;;;;;;;;5033866;28;20080;-53
2021/10/08 12:43:50;;;;;;;19.30;10.15;;;;;;;;;;5032920;28;20029;-53
2021/10/08 12:46:20;;;;;;;18.27;9.30;;;;;;;;;;5033746;28;20025;-53
2021/10/08 12:48:57;;;;;;;22.88;9.27;;;;;;;;;;5033836;28;20057;-54
2021/10/08 12:51:23;;;;;;;18.52;8.60;;;;;;;;;;5033716;28;20041;-53
2021/10/08 12:53:49;;;;;;;21.73;9.05;;;;;;;;;;5032828;28;20026;-53
2021/10/08 12:56:22;;;;;;;18.90;9.38;;;;;;;;;;5033495;28;20102;-53
2021/10/08 12:58:51;;;;;;;18.95;8.68;;;;;;;;;;5033538;28;20057;-53
2021/10/08 13:01:17;;;;;;;16.45;8.57;;;;;;;;;;5031426;28;20033;-53
2021/10/08 13:03:44;;;;;;;23.95;8.68;;;;;;;;;;5032675;28;20086;-53
2021/10/08 13:06:32;;;;;;;19.65;9.82;;;;;;;;;;5033387;28;20485;-53
2021/10/08 13:09:05;;;;;;;16.42;7.93;;;;;;;;;;5033394;28;20124;-53
2021/10/08 13:11:35;;;;;;;15.90;7.78;;;;;;;;;;5032753;28;20033;-53
2021/10/08 13:14:01;;;;;;;15.70;7.50;;;;;;;;;;5032715;28;20037;-53
2021/10/08 13:16:31;;;;;;;25.58;7.78;;;;;;;;;;5033208;28;20034;-54
2021/10/08 13:18:58;;;;;;;20.25;7.80;;;;;;;;;;5033225;28;20024;-53
2021/10/08 13:21:24;;;;;;;16.38;8.13;;;;;;;;;;5033047;28;20455;-54
2021/10/08 13:23:51;;;;;;;17.83;7.72;;;;;;;;;;5032216;28;20024;-54
2021/10/08 13:26:18;;;;;;;16.38;8.38;;;;;;;;;;5033296;28;20025;-53
2021/10/08 13:28:44;;;;;;;19.63;7.90;;;;;;;;;;5033061;28;20382;-53
2021/10/08 13:31:10;;;;;;;16.58;8.10;;;;;;;;;;5032738;28;20037;-53
2021/10/08 13:33:38;;;;;;;12.60;7.10;;;;;;;;;;5031679;28;20509;-53
2021/10/08 13:36:04;;;;;;;17.25;8.68;;;;;;;;;;5033125;28;20036;-53
2021/10/08 13:38:30;;;;;;;19.95;8.85;;;;;;;;;;5032510;28;20021;-53
2021/10/08 13:40:58;;;;;;;21.95;8.15;;;;;;;;;;5033273;28;20117;-53
2021/10/08 13:43:24;;;;;;;18.45;7.18;;;;;;;;;;5032506;28;20025;-53
2021/10/08 13:45:50;;;;;;;18.05;8.40;;;;;;;;;;5032489;28;20104;-53
2021/10/08 13:48:17;;;;;;;19.63;7.55;;;;;;;;;;5032612;28;20136;-53
2021/10/08 13:50:45;;;;;;;16.60;6.70;;;;;;;;;;5033145;28;20029;-54
2021/10/08 13:53:12;;;;;;;16.83;6.70;;;;;;;;;;5032269;28;20029;-53
2021/10/08 13:55:38;;;;;;;14.38;6.82;;;;;;;;;;5032281;28;20061;-53
2021/10/08 13:58:08;;;;;;;13.52;6.22;;;;;;;;;;5032644;28;20028;-53
2021/10/08 14:00:44;;;;;;;9.93;6.07;;;;;;;;;;5032839;28;20445;-54
2021/10/08 14:11:10;;;;;;;14.27;7.32;;;;;;;;;;5032617;28;20044;-53
2021/10/08 14:13:36;;;;;;;10.88;5.50;;;;;;;;;;5031280;28;20037;-53
2021/10/08 14:16:02;;;;;;;16.23;6.43;;;;;;;;;;5032697;28;20026;-53
2021/10/08 14:18:28;;;;;;;13.38;5.65;;;;;;;;;;5032686;28;20030;-54
2021/10/08 14:20:54;;;;;;;12.68;6.65;;;;;;;;;;5032562;28;20039;-54
2021/10/08 14:23:20;;;;;;;11.43;5.05;;;;;;;;;;5032711;28;20036;-53
2021/10/08 14:25:46;;;;;;;13.07;6.30;;;;;;;;;;5032066;28;20022;-54
2021/10/08 14:28:12;;;;;;;10.45;5.53;;;;;;;;;;5030661;28;20079;-53
2021/10/08 14:30:38;;;;;;;11.55;6.55;;;;;;;;;;5044356;28;20037;-54
2021/10/08 14:33:04;;;;;;;8.32;5.30;;;;;;;;;;5052466;28;20027;-53
2021/10/08 14:35:30;;;;;;;9.63;5.28;;;;;;;;;;5051315;28;20116;-53
2021/10/08 14:37:57;;;;;;;11.00;5.85;;;;;;;;;;5036874;28;20104;-54
2021/10/08 14:40:23;;;;;;;12.63;6.10;;;;;;;;;;5032365;28;20022;-53
2021/10/08 14:42:49;;;;;;;11.90;5.75;;;;;;;;;;5032409;28;20025;-53
2021/10/08 14:45:18;;;;;;;13.77;5.63;;;;;;;;;;5031214;28;20041;-53
2021/10/08 14:47:45;;;;;;;18.40;6.20;;;;;;;;;;5032361;28;20029;-53
2021/10/08 14:50:11;;;;;;;11.48;5.78;;;;;;;;;;5031890;28;20526;-53
2021/10/08 14:52:39;;;;;;;14.32;6.03;;;;;;;;;;5032135;28;20033;-54
2021/10/08 15:00:19;;;;;;;10.20;5.47;;;;;;;;;;5035526;28;20029;-54